sensor_id;sensor_type;location;lat;lon;timestamp;pressure;altitude;pressure_sealevel;temperature;humidity
51715;BME280;39115;59.332;18.034;2022-07-25T00:01:47;100850.94;;;18.58;57.90
51715;BME280;39115;59.332;18.034;2022-07-25T00:04:13;100842.66;;;18.59;58.03
51715;BME280;39115;59.332;18.034;2022-07-25T00:06:39;100842.84;;;18.58;58.00
51715;BME280;39115;59.332;18.034;2022-07-25T00:09:06;100843.00;;;18.56;57.78
51715;BME280;39115;59.332;18.034;2022-07-25T00:11:31;100839.28;;;18.57;58.18
51715;BME280;39115;59.332;18.034;2022-07-25T00:13:57;100836.25;;;18.60;57.96
51715;BME280;39115;59.332;18.034;2022-07-25T00:16:22;100829.84;;;18.61;57.80
51715;BME280;39115;59.332;18.034;2022-07-25T00:18:48;100829.44;;;18.64;57.81
51715;BME280;39115;59.332;18.034;2022-07-25T00:21:13;100820.13;;;18.67;57.76
51715;BME280;39115;59.332;18.034;2022-07-25T00:23:39;100818.50;;;18.66;57.64
51715;BME280;39115;59.332;18.034;2022-07-25T00:26:04;100824.50;;;18.68;57.61
51715;BME280;39115;59.332;18.034;2022-07-25T00:28:30;100826.38;;;18.68;57.81
51715;BME280;39115;59.332;18.034;2022-07-25T00:30:56;100825.53;;;18.67;57.53
51715;BME280;39115;59.332;18.034;2022-07-25T00:33:21;100819.50;;;18.65;57.71
51715;BME280;39115;59.332;18.034;2022-07-25T00:35:47;100822.22;;;18.65;57.59
51715;BME280;39115;59.332;18.034;2022-07-25T00:38:12;100815.97;;;18.64;57.63
51715;BME280;39115;59.332;18.034;2022-07-25T00:40:37;100807.88;;;18.64;57.71
51715;BME280;39115;59.332;18.034;2022-07-25T00:43:03;100807.88;;;18.64;57.83
51715;BME280;39115;59.332;18.034;2022-07-25T00:45:29;100806.84;;;18.65;57.75
51715;BME280;39115;59.332;18.034;2022-07-25T00:47:54;100809.56;;;18.65;57.85
51715;BME280;39115;59.332;18.034;2022-07-25T00:50:20;100812.06;;;18.67;57.96
51715;BME280;39115;59.332;18.034;2022-07-25T00:52:46;100802.13;;;18.68;57.90
51715;BME280;39115;59.332;18.034;2022-07-25T00:55:12;100807.50;;;18.68;57.88
51715;BME280;39115;59.332;18.034;2022-07-25T00:57:37;100801.94;;;18.69;58.05
51715;BME280;39115;59.332;18.034;2022-07-25T01:00:09;100805.63;;;18.68;57.89
51715;BME280;39115;59.332;18.034;2022-07-25T01:02:35;100798.56;;;18.67;58.03
51715;BME280;39115;59.332;18.034;2022-07-25T01:05:03;100796.72;;;18.68;58.16
51715;BME280;39115;59.332;18.034;2022-07-25T01:07:30;100797.94;;;18.65;58.02
51715;BME280;39115;59.332;18.034;2022-07-25T01:09:55;100797.09;;;18.64;58.06
51715;BME280;39115;59.332;18.034;2022-07-25T01:12:21;100790.03;;;18.63;58.22
51715;BME280;39115;59.332;18.034;2022-07-25T01:14:47;100780.09;;;18.64;57.89
51715;BME280;39115;59.332;18.034;2022-07-25T01:17:12;100776.38;;;18.65;58.33
51715;BME280;39115;59.332;18.034;2022-07-25T01:19:37;100780.09;;;18.64;58.33
51715;BME280;39115;59.332;18.034;2022-07-25T01:22:03;100783.63;;;18.64;58.00
51715;BME280;39115;59.332;18.034;2022-07-25T01:24:28;100786.31;;;18.64;58.34
51715;BME280;39115;59.332;18.034;2022-07-25T01:26:54;100788.00;;;18.65;58.56
51715;BME280;39115;59.332;18.034;2022-07-25T01:29:20;100775.53;;;18.64;58.40
51715;BME280;39115;59.332;18.034;2022-07-25T01:31:45;100775.91;;;18.61;58.59
51715;BME280;39115;59.332;18.034;2022-07-25T01:34:10;100774.25;;;18.60;58.61
51715;BME280;39115;59.332;18.034;2022-07-25T01:36:36;100765.13;;;18.61;58.64
51715;BME280;39115;59.332;18.034;2022-07-25T01:39:01;100767.84;;;18.61;58.65
51715;BME280;39115;59.332;18.034;2022-07-25T01:41:29;100760.75;;;18.60;58.65
51715;BME280;39115;59.332;18.034;2022-07-25T01:43:54;100766.97;;;18.61;58.78
51715;BME280;39115;59.332;18.034;2022-07-25T01:46:20;100766.16;;;18.60;58.80
51715;BME280;39115;59.332;18.034;2022-07-25T01:48:45;100759.91;;;18.60;58.82
51715;BME280;39115;59.332;18.034;2022-07-25T01:51:11;100755.75;;;18.57;58.72
51715;BME280;39115;59.332;18.034;2022-07-25T01:53:36;100745.63;;;18.59;58.76
51715;BME280;39115;59.332;18.034;2022-07-25T01:56:03;100743.94;;;18.58;58.81
51715;BME280;39115;59.332;18.034;2022-07-25T01:58:29;100751.19;;;18.58;58.91
51715;BME280;39115;59.332;18.034;2022-07-25T02:00:54;100747.00;;;18.55;58.97
51715;BME280;39115;59.332;18.034;2022-07-25T02:03:19;100742.47;;;18.56;58.97
51715;BME280;39115;59.332;18.034;2022-07-25T02:05:55;100736.88;;;18.57;58.84
51715;BME280;39115;59.332;18.034;2022-07-25T02:08:20;100732.34;;;18.58;58.78
51715;BME280;39115;59.332;18.034;2022-07-25T02:10:46;100729.44;;;18.59;59.00
51715;BME280;39115;59.332;18.034;2022-07-25T02:13:11;100744.59;;;18.60;58.87
51715;BME280;39115;59.332;18.034;2022-07-25T02:15:37;100739.00;;;18.62;58.95
51715;BME280;39115;59.332;18.034;2022-07-25T02:18:02;100729.91;;;18.63;58.75
51715;BME280;39115;59.332;18.034;2022-07-25T02:20:28;100733.41;;;18.63;58.74
51715;BME280;39115;59.332;18.034;2022-07-25T02:22:53;100731.38;;;18.65;58.79
51715;BME280;39115;59.332;18.034;2022-07-25T02:25:19;100723.28;;;18.65;58.85
51715;BME280;39115;59.332;18.034;2022-07-25T02:27:44;100729.34;;;18.68;58.99
51715;BME280;39115;59.332;18.034;2022-07-25T02:30:10;100711.28;;;18.68;58.98
51715;BME280;39115;59.332;18.034;2022-07-25T02:32:36;100707.56;;;18.69;59.03
51715;BME280;39115;59.332;18.034;2022-07-25T02:35:01;100698.47;;;18.70;59.02
51715;BME280;39115;59.332;18.034;2022-07-25T02:37:26;100700.78;;;18.73;59.06
51715;BME280;39115;59.332;18.034;2022-07-25T02:39:52;100699.56;;;18.76;58.83
51715;BME280;39115;59.332;18.034;2022-07-25T02:42:17;100716.38;;;18.78;58.89
51715;BME280;39115;59.332;18.034;2022-07-25T02:44:42;100708.13;;;18.79;58.99
51715;BME280;39115;59.332;18.034;2022-07-25T02:47:08;100705.03;;;18.83;58.96
51715;BME280;39115;59.332;18.034;2022-07-25T02:49:33;100711.91;;;18.85;58.81
51715;BME280;39115;59.332;18.034;2022-07-25T02:51:58;100710.69;;;18.88;58.93
51715;BME280;39115;59.332;18.034;2022-07-25T02:54:24;100710.88;;;18.86;59.03
51715;BME280;39115;59.332;18.034;2022-07-25T02:56:49;100713.56;;;18.86;58.87
51715;BME280;39115;59.332;18.034;2022-07-25T02:59:14;100719.81;;;18.87;59.17
51715;BME280;39115;59.332;18.034;2022-07-25T03:01:40;100711.72;;;18.87;59.15
51715;BME280;39115;59.332;18.034;2022-07-25T03:04:05;100713.56;;;18.86;59.29
51715;BME280;39115;59.332;18.034;2022-07-25T03:06:31;100717.94;;;18.87;59.00
51715;BME280;39115;59.332;18.034;2022-07-25T03:08:56;100729.38;;;18.89;59.17
51715;BME280;39115;59.332;18.034;2022-07-25T03:11:21;100725.66;;;18.90;59.22
51715;BME280;39115;59.332;18.034;2022-07-25T03:13:47;100721.94;;;18.91;59.27
51715;BME280;39115;59.332;18.034;2022-07-25T03:16:12;100712.84;;;18.92;59.35
51715;BME280;39115;59.332;18.034;2022-07-25T03:18:38;100720.75;;;18.94;59.37
51715;BME280;39115;59.332;18.034;2022-07-25T03:21:03;100727.63;;;18.96;59.29
51715;BME280;39115;59.332;18.034;2022-07-25T03:23:29;100724.91;;;18.96;59.46
51715;BME280;39115;59.332;18.034;2022-07-25T03:25:55;100724.91;;;18.96;59.53
51715;BME280;39115;59.332;18.034;2022-07-25T03:28:21;100717.28;;;19.00;59.60
51715;BME280;39115;59.332;18.034;2022-07-25T03:30:47;100708.63;;;19.05;59.43
51715;BME280;39115;59.332;18.034;2022-07-25T03:33:12;100701.63;;;19.10;59.46
51715;BME280;39115;59.332;18.034;2022-07-25T03:35:37;100693.59;;;19.17;59.41
51715;BME280;39115;59.332;18.034;2022-07-25T03:38:03;100697.22;;;19.24;59.34
51715;BME280;39115;59.332;18.034;2022-07-25T03:40:28;100693.53;;;19.32;59.18
51715;BME280;39115;59.332;18.034;2022-07-25T03:42:53;100699.16;;;19.37;59.04
51715;BME280;39115;59.332;18.034;2022-07-25T03:45:19;100704.63;;;19.44;59.19
51715;BME280;39115;59.332;18.034;2022-07-25T03:47:44;100698.66;;;19.49;59.15
51715;BME280;39115;59.332;18.034;2022-07-25T03:50:10;100702.00;;;19.51;59.05
51715;BME280;39115;59.332;18.034;2022-07-25T03:52:35;100702.44;;;19.54;59.13
51715;BME280;39115;59.332;18.034;2022-07-25T03:55:04;100703.06;;;19.56;58.97
51715;BME280;39115;59.332;18.034;2022-07-25T03:57:29;100706.81;;;19.55;59.22
51715;BME280;39115;59.332;18.034;2022-07-25T03:59:55;100708.66;;;19.55;59.18
51715;BME280;39115;59.332;18.034;2022-07-25T04:02:20;100697.66;;;19.56;59.31
51715;BME280;39115;59.332;18.034;2022-07-25T04:04:45;100692.91;;;19.58;59.31
51715;BME280;39115;59.332;18.034;2022-07-25T04:07:11;100686.09;;;19.63;59.45
51715;BME280;39115;59.332;18.034;2022-07-25T04:09:36;100682.19;;;19.65;59.39
51715;BME280;39115;59.332;18.034;2022-07-25T04:12:02;100676.56;;;19.67;59.25
51715;BME280;39115;59.332;18.034;2022-07-25T04:14:27;100679.72;;;19.70;59.31
51715;BME280;39115;59.332;18.034;2022-07-25T04:16:52;100681.00;;;19.74;59.26
51715;BME280;39115;59.332;18.034;2022-07-25T04:19:18;100672.50;;;19.78;59.38
51715;BME280;39115;59.332;18.034;2022-07-25T04:21:43;100672.09;;;19.81;59.29
51715;BME280;39115;59.332;18.034;2022-07-25T04:24:09;100666.97;;;19.86;58.89
51715;BME280;39115;59.332;18.034;2022-07-25T04:26:34;100670.75;;;19.92;59.19
51715;BME280;39115;59.332;18.034;2022-07-25T04:28:59;100673.69;;;19.97;59.19
51715;BME280;39115;59.332;18.034;2022-07-25T04:31:27;100668.97;;;20.05;58.96
51715;BME280;39115;59.332;18.034;2022-07-25T04:33:53;100661.09;;;20.11;58.86
51715;BME280;39115;59.332;18.034;2022-07-25T04:36:18;100654.66;;;20.18;58.83
51715;BME280;39115;59.332;18.034;2022-07-25T04:38:44;100655.53;;;20.26;58.53
51715;BME280;39115;59.332;18.034;2022-07-25T04:41:09;100661.19;;;20.31;58.35
51715;BME280;39115;59.332;18.034;2022-07-25T04:43:35;100665.13;;;20.35;58.50
51715;BME280;39115;59.332;18.034;2022-07-25T04:46:00;100661.19;;;20.37;58.51
51715;BME280;39115;59.332;18.034;2022-07-25T04:48:26;100656.03;;;20.43;58.58
51715;BME280;39115;59.332;18.034;2022-07-25T04:50:51;100640.69;;;20.50;58.32
51715;BME280;39115;59.332;18.034;2022-07-25T04:53:17;100652.75;;;20.61;58.08
51715;BME280;39115;59.332;18.034;2022-07-25T04:55:42;100651.34;;;20.72;57.80
51715;BME280;39115;59.332;18.034;2022-07-25T04:58:08;100657.22;;;20.82;57.87
51715;BME280;39115;59.332;18.034;2022-07-25T05:00:33;100656.00;;;20.91;57.70
51715;BME280;39115;59.332;18.034;2022-07-25T05:02:59;100646.03;;;20.98;57.35
51715;BME280;39115;59.332;18.034;2022-07-25T05:05:24;100645.41;;;21.03;57.28
51715;BME280;39115;59.332;18.034;2022-07-25T05:07:55;100645.41;;;21.03;57.43
51715;BME280;39115;59.332;18.034;2022-07-25T05:10:21;100643.72;;;21.02;57.33
51715;BME280;39115;59.332;18.034;2022-07-25T05:12:47;100641.84;;;21.03;57.37
51715;BME280;39115;59.332;18.034;2022-07-25T05:15:12;100629.78;;;20.98;57.40
51715;BME280;39115;59.332;18.034;2022-07-25T05:17:37;100636.03;;;20.99;57.46
51715;BME280;39115;59.332;18.034;2022-07-25T05:20:03;100634.59;;;21.03;57.40
51715;BME280;39115;59.332;18.034;2022-07-25T05:22:29;100633.34;;;21.06;57.44
51715;BME280;39115;59.332;18.034;2022-07-25T05:24:54;100622.69;;;21.04;57.41
51715;BME280;39115;59.332;18.034;2022-07-25T05:27:20;100623.75;;;21.03;57.21
51715;BME280;39115;59.332;18.034;2022-07-25T05:29:45;100614.78;;;21.03;57.29
51715;BME280;39115;59.332;18.034;2022-07-25T05:32:11;100615.81;;;21.01;57.36
51715;BME280;39115;59.332;18.034;2022-07-25T05:34:36;100612.72;;;20.98;57.52
51715;BME280;39115;59.332;18.034;2022-07-25T05:37:02;100601.25;;;20.96;57.55
51715;BME280;39115;59.332;18.034;2022-07-25T05:39:27;100601.47;;;20.94;57.55
51715;BME280;39115;59.332;18.034;2022-07-25T05:41:53;100607.72;;;20.95;57.55
51715;BME280;39115;59.332;18.034;2022-07-25T05:44:18;100606.88;;;20.94;57.50
51715;BME280;39115;59.332;18.034;2022-07-25T05:46:43;100604.19;;;21.01;57.51
51715;BME280;39115;59.332;18.034;2022-07-25T05:49:09;100609.41;;;21.09;57.52
51715;BME280;39115;59.332;18.034;2022-07-25T05:51:35;100596.91;;;21.15;57.20
51715;BME280;39115;59.332;18.034;2022-07-25T05:54:00;100593.78;;;21.18;57.17
51715;BME280;39115;59.332;18.034;2022-07-25T05:56:25;100598.38;;;21.17;57.37
51715;BME280;39115;59.332;18.034;2022-07-25T05:58:51;100595.03;;;21.15;57.39
51715;BME280;39115;59.332;18.034;2022-07-25T06:01:17;100595.66;;;21.17;57.33
51715;BME280;39115;59.332;18.034;2022-07-25T06:03:43;100596.06;;;21.21;57.19
51715;BME280;39115;59.332;18.034;2022-07-25T06:06:08;100584.63;;;21.26;57.07
51715;BME280;39115;59.332;18.034;2022-07-25T06:08:35;100582.94;;;21.31;57.11
51715;BME280;39115;59.332;18.034;2022-07-25T06:11:00;100577.31;;;21.33;57.04
51715;BME280;39115;59.332;18.034;2022-07-25T06:13:28;100572.94;;;21.39;57.01
51715;BME280;39115;59.332;18.034;2022-07-25T06:15:54;100577.31;;;21.46;56.89
51715;BME280;39115;59.332;18.034;2022-07-25T06:18:19;100575.00;;;21.50;56.88
51715;BME280;39115;59.332;18.034;2022-07-25T06:20:44;100573.75;;;21.53;56.97
51715;BME280;39115;59.332;18.034;2022-07-25T06:23:10;100580.59;;;21.55;56.81
51715;BME280;39115;59.332;18.034;2022-07-25T06:25:35;100567.50;;;21.59;56.84
51715;BME280;39115;59.332;18.034;2022-07-25T06:28:01;100548.94;;;21.62;56.92
51715;BME280;39115;59.332;18.034;2022-07-25T06:30:26;100550.00;;;21.68;56.71
51715;BME280;39115;59.332;18.034;2022-07-25T06:32:52;100551.41;;;21.77;56.50
51715;BME280;39115;59.332;18.034;2022-07-25T06:35:18;100555.97;;;21.90;56.28
51715;BME280;39115;59.332;18.034;2022-07-25T06:37:43;100553.59;;;22.01;55.99
51715;BME280;39115;59.332;18.034;2022-07-25T06:40:09;100547.53;;;22.12;55.75
51715;BME280;39115;59.332;18.034;2022-07-25T06:42:39;100548.09;;;22.21;55.62
51715;BME280;39115;59.332;18.034;2022-07-25T06:45:06;100539.06;;;22.34;55.40
51715;BME280;39115;59.332;18.034;2022-07-25T06:47:33;100548.16;;;22.53;54.99
51715;BME280;39115;59.332;18.034;2022-07-25T06:49:59;100545.78;;;22.63;54.80
51715;BME280;39115;59.332;18.034;2022-07-25T06:52:24;100557.81;;;22.74;54.59
51715;BME280;39115;59.332;18.034;2022-07-25T06:54:49;100556.38;;;22.97;54.22
51715;BME280;39115;59.332;18.034;2022-07-25T06:57:15;100550.94;;;23.22;53.44
51715;BME280;39115;59.332;18.034;2022-07-25T06:59:40;100552.94;;;23.33;53.48
51715;BME280;39115;59.332;18.034;2022-07-25T07:02:06;100564.13;;;23.44;53.24
51715;BME280;39115;59.332;18.034;2022-07-25T07:04:31;100562.91;;;23.40;53.53
51715;BME280;39115;59.332;18.034;2022-07-25T07:06:57;100565.91;;;23.31;53.23
51715;BME280;39115;59.332;18.034;2022-07-25T07:09:22;100552.63;;;23.23;53.57
51715;BME280;39115;59.332;18.034;2022-07-25T07:11:47;100551.81;;;23.16;53.55
51715;BME280;39115;59.332;18.034;2022-07-25T07:14:13;100557.34;;;23.09;53.64
51715;BME280;39115;59.332;18.034;2022-07-25T07:16:38;100549.00;;;23.04;53.62
51715;BME280;39115;59.332;18.034;2022-07-25T07:19:05;100548.34;;;23.09;53.43
51715;BME280;39115;59.332;18.034;2022-07-25T07:21:31;100540.31;;;23.20;53.32
51715;BME280;39115;59.332;18.034;2022-07-25T07:23:56;100545.25;;;23.30;53.33
51715;BME280;39115;59.332;18.034;2022-07-25T07:26:21;100543.28;;;23.37;53.13
51715;BME280;39115;59.332;18.034;2022-07-25T07:28:47;100530.69;;;23.43;53.12
51715;BME280;39115;59.332;18.034;2022-07-25T07:31:15;100528.59;;;23.45;52.84
51715;BME280;39115;59.332;18.034;2022-07-25T07:33:41;100539.22;;;23.47;52.97
51715;BME280;39115;59.332;18.034;2022-07-25T07:36:07;100524.91;;;23.58;52.85
51715;BME280;39115;59.332;18.034;2022-07-25T07:38:32;100524.50;;;23.73;52.52
51715;BME280;39115;59.332;18.034;2022-07-25T07:40:58;100531.66;;;23.86;52.30
51715;BME280;39115;59.332;18.034;2022-07-25T07:43:23;100532.38;;;24.00;51.90
51715;BME280;39115;59.332;18.034;2022-07-25T07:45:49;100532.13;;;24.02;52.02
51715;BME280;39115;59.332;18.034;2022-07-25T07:48:14;100537.81;;;24.00;52.07
51715;BME280;39115;59.332;18.034;2022-07-25T07:50:40;100536.75;;;24.01;51.60
51715;BME280;39115;59.332;18.034;2022-07-25T07:53:05;100533.03;;;23.95;51.83
51715;BME280;39115;59.332;18.034;2022-07-25T07:55:31;100533.94;;;23.89;51.98
51715;BME280;39115;59.332;18.034;2022-07-25T07:58:19;100527.28;;;23.85;52.14
51715;BME280;39115;59.332;18.034;2022-07-25T08:00:46;100519.13;;;23.85;52.05
51715;BME280;39115;59.332;18.034;2022-07-25T08:03:16;100528.50;;;23.89;51.89
51715;BME280;39115;59.332;18.034;2022-07-25T08:05:43;100523.56;;;24.17;51.51
51715;BME280;39115;59.332;18.034;2022-07-25T08:08:10;100524.03;;;24.56;50.65
51715;BME280;39115;59.332;18.034;2022-07-25T08:10:41;100528.59;;;24.74;50.47
51715;BME280;39115;59.332;18.034;2022-07-25T08:13:36;100516.13;;;24.66;50.74
51715;BME280;39115;59.332;18.034;2022-07-25T08:16:03;100517.00;;;24.67;50.44
51715;BME280;39115;59.332;18.034;2022-07-25T08:18:29;100520.78;;;24.77;50.32
51715;BME280;39115;59.332;18.034;2022-07-25T08:20:57;100524.94;;;24.92;49.75
51715;BME280;39115;59.332;18.034;2022-07-25T08:23:23;100513.34;;;25.08;49.26
51715;BME280;39115;59.332;18.034;2022-07-25T08:25:51;100512.66;;;25.13;49.36
51715;BME280;39115;59.332;18.034;2022-07-25T08:28:17;100522.22;;;25.16;49.35
51715;BME280;39115;59.332;18.034;2022-07-25T08:30:42;100530.50;;;25.09;49.14
51715;BME280;39115;59.332;18.034;2022-07-25T08:33:09;100524.13;;;25.03;49.37
51715;BME280;39115;59.332;18.034;2022-07-25T08:35:37;100521.16;;;25.05;49.05
51715;BME280;39115;59.332;18.034;2022-07-25T08:38:04;100515.22;;;25.08;48.89
51715;BME280;39115;59.332;18.034;2022-07-25T08:40:32;100517.25;;;25.01;48.96
51715;BME280;39115;59.332;18.034;2022-07-25T08:42:58;100527.41;;;24.93;48.99
51715;BME280;39115;59.332;18.034;2022-07-25T08:45:25;100522.09;;;24.87;49.11
51715;BME280;39115;59.332;18.034;2022-07-25T08:47:53;100521.75;;;24.83;49.29
51715;BME280;39115;59.332;18.034;2022-07-25T08:50:21;100514.03;;;24.80;49.21
51715;BME280;39115;59.332;18.034;2022-07-25T08:52:48;100525.19;;;24.78;49.28
51715;BME280;39115;59.332;18.034;2022-07-25T08:55:23;100515.22;;;24.72;49.68
51715;BME280;39115;59.332;18.034;2022-07-25T08:57:51;100518.66;;;24.68;49.80
51715;BME280;39115;59.332;18.034;2022-07-25T09:00:20;100516.34;;;24.65;49.82
51715;BME280;39115;59.332;18.034;2022-07-25T09:02:58;100520.13;;;24.63;49.78
51715;BME280;39115;59.332;18.034;2022-07-25T09:05:26;100513.97;;;24.56;50.04
51715;BME280;39115;59.332;18.034;2022-07-25T09:07:53;100504.28;;;24.49;50.29
51715;BME280;39115;59.332;18.034;2022-07-25T09:10:20;100518.66;;;24.37;50.58
51715;BME280;39115;59.332;18.034;2022-07-25T09:13:01;100516.03;;;24.30;50.68
51715;BME280;39115;59.332;18.034;2022-07-25T09:15:29;100508.47;;;24.33;50.93
51715;BME280;39115;59.332;18.034;2022-07-25T09:17:59;100510.41;;;24.44;50.49
51715;BME280;39115;59.332;18.034;2022-07-25T09:20:43;100506.66;;;24.57;50.38
51715;BME280;39115;59.332;18.034;2022-07-25T09:23:14;100508.19;;;24.65;50.24
51715;BME280;39115;59.332;18.034;2022-07-25T09:25:50;100517.97;;;24.72;50.38
51715;BME280;39115;59.332;18.034;2022-07-25T09:28:17;100513.22;;;24.80;50.12
51715;BME280;39115;59.332;18.034;2022-07-25T09:30:59;100505.19;;;24.85;50.40
51715;BME280;39115;59.332;18.034;2022-07-25T09:33:27;100504.72;;;24.88;50.03
51715;BME280;39115;59.332;18.034;2022-07-25T09:35:53;100501.88;;;24.94;50.18
51715;BME280;39115;59.332;18.034;2022-07-25T09:38:20;100495.09;;;24.97;50.08
51715;BME280;39115;59.332;18.034;2022-07-25T09:43:19;100499.63;;;25.03;50.06
51715;BME280;39115;59.332;18.034;2022-07-25T09:45:49;100496.06;;;25.15;49.83
51715;BME280;39115;59.332;18.034;2022-07-25T09:48:17;100491.78;;;25.31;49.46
51715;BME280;39115;59.332;18.034;2022-07-25T09:50:43;100488.09;;;25.61;48.64
51715;BME280;39115;59.332;18.034;2022-07-25T09:53:09;100495.59;;;25.82;48.60
51715;BME280;39115;59.332;18.034;2022-07-25T09:55:35;100494.53;;;25.83;48.51
51715;BME280;39115;59.332;18.034;2022-07-25T09:58:01;100487.41;;;25.82;48.30
51715;BME280;39115;59.332;18.034;2022-07-25T10:00:27;100483.84;;;25.82;48.22
51715;BME280;39115;59.332;18.034;2022-07-25T10:08:06;100485.84;;;25.86;48.27
51715;BME280;39115;59.332;18.034;2022-07-25T10:10:38;100478.06;;;25.78;48.18
51715;BME280;39115;59.332;18.034;2022-07-25T10:13:08;100490.09;;;25.65;48.58
51715;BME280;39115;59.332;18.034;2022-07-25T10:15:50;100479.66;;;25.62;48.57
51715;BME280;39115;59.332;18.034;2022-07-25T10:18:19;100478.84;;;25.62;48.45
51715;BME280;39115;59.332;18.034;2022-07-25T10:20:47;100467.59;;;25.58;48.47
51715;BME280;39115;59.332;18.034;2022-07-25T10:23:20;100469.47;;;25.57;48.47
51715;BME280;39115;59.332;18.034;2022-07-25T10:26:13;100475.88;;;25.63;48.75
51715;BME280;39115;59.332;18.034;2022-07-25T10:28:47;100468.28;;;25.65;48.68
51715;BME280;39115;59.332;18.034;2022-07-25T10:31:16;100477.53;;;25.64;48.59
51715;BME280;39115;59.332;18.034;2022-07-25T10:33:42;100476.34;;;25.60;48.64
51715;BME280;39115;59.332;18.034;2022-07-25T10:36:11;100474.94;;;25.57;48.67
51715;BME280;39115;59.332;18.034;2022-07-25T10:38:38;100470.69;;;25.62;48.54
51715;BME280;39115;59.332;18.034;2022-07-25T10:41:05;100475.03;;;25.63;48.58
51715;BME280;39115;59.332;18.034;2022-07-25T10:43:37;100479.19;;;25.65;48.55
51715;BME280;39115;59.332;18.034;2022-07-25T10:46:13;100474.66;;;25.71;48.79
51715;BME280;39115;59.332;18.034;2022-07-25T10:48:39;100484.97;;;25.69;48.79
51715;BME280;39115;59.332;18.034;2022-07-25T10:56:12;100477.81;;;25.39;49.10
51715;BME280;39115;59.332;18.034;2022-07-25T11:01:20;100478.53;;;25.22;49.37
51715;BME280;39115;59.332;18.034;2022-07-25T11:03:46;100482.19;;;25.16;49.70
51715;BME280;39115;59.332;18.034;2022-07-25T11:06:12;100472.88;;;25.00;49.76
51715;BME280;39115;59.332;18.034;2022-07-25T11:08:39;100482.94;;;24.88;49.98
51715;BME280;39115;59.332;18.034;2022-07-25T11:11:05;100486.47;;;24.76;50.38
51715;BME280;39115;59.332;18.034;2022-07-25T11:13:43;100475.56;;;24.65;50.50
51715;BME280;39115;59.332;18.034;2022-07-25T11:16:09;100475.66;;;24.58;50.70
51715;BME280;39115;59.332;18.034;2022-07-25T11:18:39;100474.72;;;24.52;50.71
51715;BME280;39115;59.332;18.034;2022-07-25T11:21:06;100463.34;;;24.43;51.11
51715;BME280;39115;59.332;18.034;2022-07-25T11:23:33;100471.63;;;24.37;51.31
51715;BME280;39115;59.332;18.034;2022-07-25T11:26:12;100464.16;;;24.32;51.31
51715;BME280;39115;59.332;18.034;2022-07-25T11:28:46;100473.63;;;24.29;51.20
51715;BME280;39115;59.332;18.034;2022-07-25T11:31:13;100457.75;;;24.26;51.48
51715;BME280;39115;59.332;18.034;2022-07-25T11:33:41;100462.50;;;24.31;51.25
51715;BME280;39115;59.332;18.034;2022-07-25T11:36:08;100464.97;;;24.33;51.28
51715;BME280;39115;59.332;18.034;2022-07-25T11:38:36;100450.56;;;24.32;51.39
51715;BME280;39115;59.332;18.034;2022-07-25T11:41:02;100453.13;;;24.27;51.48
51715;BME280;39115;59.332;18.034;2022-07-25T11:43:28;100459.66;;;24.26;51.64
51715;BME280;39115;59.332;18.034;2022-07-25T11:46:02;100452.56;;;24.25;51.62
51715;BME280;39115;59.332;18.034;2022-07-25T11:48:36;100455.97;;;24.20;51.63
51715;BME280;39115;59.332;18.034;2022-07-25T11:51:17;100452.72;;;24.11;51.62
51715;BME280;39115;59.332;18.034;2022-07-25T11:53:49;100449.78;;;24.01;51.81
51715;BME280;39115;59.332;18.034;2022-07-25T11:56:19;100447.97;;;23.95;52.17
51715;BME280;39115;59.332;18.034;2022-07-25T11:59:03;100444.84;;;23.91;52.06
51715;BME280;39115;59.332;18.034;2022-07-25T12:01:40;100442.69;;;23.81;52.01
51715;BME280;39115;59.332;18.034;2022-07-25T12:04:13;100441.34;;;23.72;52.44
51715;BME280;39115;59.332;18.034;2022-07-25T12:06:43;100438.72;;;23.65;52.62
51715;BME280;39115;59.332;18.034;2022-07-25T12:09:15;100443.88;;;23.55;52.92
51715;BME280;39115;59.332;18.034;2022-07-25T12:11:41;100447.72;;;23.47;53.01
51715;BME280;39115;59.332;18.034;2022-07-25T12:14:07;100442.97;;;23.43;53.14
51715;BME280;39115;59.332;18.034;2022-07-25T12:16:33;100430.47;;;23.42;53.37
51715;BME280;39115;59.332;18.034;2022-07-25T12:18:59;100425.84;;;23.42;53.86
51715;BME280;39115;59.332;18.034;2022-07-25T12:21:26;100416.94;;;23.35;54.36
51715;BME280;39115;59.332;18.034;2022-07-25T12:23:51;100415.53;;;23.32;54.77
51715;BME280;39115;59.332;18.034;2022-07-25T12:26:18;100409.66;;;23.35;54.94
51715;BME280;39115;59.332;18.034;2022-07-25T12:28:43;100400.81;;;23.40;54.71
51715;BME280;39115;59.332;18.034;2022-07-25T12:31:09;100402.63;;;23.46;54.95
51715;BME280;39115;59.332;18.034;2022-07-25T12:33:34;100392.88;;;23.57;54.59
51715;BME280;39115;59.332;18.034;2022-07-25T12:36:00;100395.16;;;23.72;54.23
51715;BME280;39115;59.332;18.034;2022-07-25T12:38:25;100389.44;;;23.92;53.92
51715;BME280;39115;59.332;18.034;2022-07-25T12:40:51;100386.06;;;24.09;53.47
51715;BME280;39115;59.332;18.034;2022-07-25T12:43:17;100383.53;;;24.26;53.09
51715;BME280;39115;59.332;18.034;2022-07-25T12:45:42;100384.25;;;24.45;52.68
51715;BME280;39115;59.332;18.034;2022-07-25T12:48:08;100380.69;;;24.56;52.75
51715;BME280;39115;59.332;18.034;2022-07-25T12:50:34;100381.13;;;24.65;52.40
51715;BME280;39115;59.332;18.034;2022-07-25T12:52:59;100383.88;;;24.65;52.50
51715;BME280;39115;59.332;18.034;2022-07-25T12:55:25;100380.09;;;24.66;52.49